sensor_id;sensor_type;location;lat;lon;timestamp;P1;durP1;ratioP1;P2;durP2;ratioP2
52956;SDS011;38819;42.692;23.342;2024-01-30T00:01:09;6.80;;;5.05;;
52956;SDS011;38819;42.692;23.342;2024-01-30T00:03:34;8.50;;;5.55;;
52956;SDS011;38819;42.692;23.342;2024-01-30T00:05:59;8.40;;;5.72;;
52956;SDS011;38819;42.692;23.342;2024-01-30T00:08:25;8.55;;;4.70;;
52956;SDS011;38819;42.692;23.342;2024-01-30T00:10:51;6.85;;;5.22;;
52956;SDS011;38819;42.692;23.342;2024-01-30T00:13:16;5.50;;;4.93;;
52956;SDS011;38819;42.692;23.342;2024-01-30T00:15:44;7.88;;;5.10;;
52956;SDS011;38819;42.692;23.342;2024-01-30T00:18:09;7.30;;;4.97;;
52956;SDS011;38819;42.692;23.342;2024-01-30T00:20:34;10.35;;;5.43;;
52956;SDS011;38819;42.692;23.342;2024-01-30T00:23:00;5.65;;;4.88;;
52956;SDS011;38819;42.692;23.342;2024-01-30T00:25:26;7.93;;;5.40;;
52956;SDS011;38819;42.692;23.342;2024-01-30T00:27:52;7.30;;;5.13;;
52956;SDS011;38819;42.692;23.342;2024-01-30T00:30:17;8.38;;;5.03;;
52956;SDS011;38819;42.692;23.342;2024-01-30T00:32:42;5.57;;;4.47;;
52956;SDS011;38819;42.692;23.342;2024-01-30T00:35:08;7.13;;;5.25;;
52956;SDS011;38819;42.692;23.342;2024-01-30T00:37:35;5.95;;;5.07;;
52956;SDS011;38819;42.692;23.342;2024-01-30T00:40:00;8.88;;;5.22;;
52956;SDS011;38819;42.692;23.342;2024-01-30T00:42:25;8.43;;;4.32;;
52956;SDS011;38819;42.692;23.342;2024-01-30T00:44:51;7.85;;;4.57;;
52956;SDS011;38819;42.692;23.342;2024-01-30T00:47:16;5.05;;;4.20;;
52956;SDS011;38819;42.692;23.342;2024-01-30T00:49:42;7.50;;;5.13;;
52956;SDS011;38819;42.692;23.342;2024-01-30T00:52:07;5.68;;;4.60;;
52956;SDS011;38819;42.692;23.342;2024-01-30T00:54:32;5.93;;;4.57;;
52956;SDS011;38819;42.692;23.342;2024-01-30T00:56:58;6.22;;;4.65;;
52956;SDS011;38819;42.692;23.342;2024-01-30T00:59:23;7.47;;;4.88;;
52956;SDS011;38819;42.692;23.342;2024-01-30T01:01:48;8.23;;;5.05;;
52956;SDS011;38819;42.692;23.342;2024-01-30T01:04:14;6.05;;;4.28;;
52956;SDS011;38819;42.692;23.342;2024-01-30T01:06:39;7.40;;;4.57;;
52956;SDS011;38819;42.692;23.342;2024-01-30T01:09:07;6.18;;;4.95;;
52956;SDS011;38819;42.692;23.342;2024-01-30T01:11:33;7.85;;;5.55;;
52956;SDS011;38819;42.692;23.342;2024-01-30T01:13:58;5.68;;;4.55;;
52956;SDS011;38819;42.692;23.342;2024-01-30T01:16:23;7.03;;;5.15;;
52956;SDS011;38819;42.692;23.342;2024-01-30T01:18:49;6.00;;;4.20;;
52956;SDS011;38819;42.692;23.342;2024-01-30T01:21:14;7.65;;;5.13;;
52956;SDS011;38819;42.692;23.342;2024-01-30T01:23:39;6.95;;;4.80;;
52956;SDS011;38819;42.692;23.342;2024-01-30T01:26:05;6.95;;;4.72;;
52956;SDS011;38819;42.692;23.342;2024-01-30T01:28:30;7.80;;;5.10;;
52956;SDS011;38819;42.692;23.342;2024-01-30T01:30:56;9.20;;;4.85;;
52956;SDS011;38819;42.692;23.342;2024-01-30T01:33:24;6.10;;;4.68;;
52956;SDS011;38819;42.692;23.342;2024-01-30T01:35:49;9.13;;;6.03;;
52956;SDS011;38819;42.692;23.342;2024-01-30T01:38:15;7.60;;;5.20;;
52956;SDS011;38819;42.692;23.342;2024-01-30T01:40:40;8.32;;;5.97;;
52956;SDS011;38819;42.692;23.342;2024-01-30T01:43:06;7.90;;;6.00;;
52956;SDS011;38819;42.692;23.342;2024-01-30T01:45:31;7.15;;;5.57;;
52956;SDS011;38819;42.692;23.342;2024-01-30T01:47:56;9.02;;;5.32;;
52956;SDS011;38819;42.692;23.342;2024-01-30T01:50:22;10.60;;;5.88;;
52956;SDS011;38819;42.692;23.342;2024-01-30T01:52:48;8.55;;;5.38;;
52956;SDS011;38819;42.692;23.342;2024-01-30T01:55:15;6.73;;;5.40;;
52956;SDS011;38819;42.692;23.342;2024-01-30T01:57:42;7.40;;;5.38;;
52956;SDS011;38819;42.692;23.342;2024-01-30T02:00:08;13.32;;;5.75;;
52956;SDS011;38819;42.692;23.342;2024-01-30T02:02:35;7.68;;;6.15;;
52956;SDS011;38819;42.692;23.342;2024-01-30T02:05:02;8.30;;;5.97;;
52956;SDS011;38819;42.692;23.342;2024-01-30T02:07:27;6.32;;;5.20;;
52956;SDS011;38819;42.692;23.342;2024-01-30T02:09:53;8.57;;;5.82;;
52956;SDS011;38819;42.692;23.342;2024-01-30T02:12:19;6.05;;;5.15;;
52956;SDS011;38819;42.692;23.342;2024-01-30T02:14:47;8.95;;;5.10;;
52956;SDS011;38819;42.692;23.342;2024-01-30T02:17:14;10.02;;;6.15;;
52956;SDS011;38819;42.692;23.342;2024-01-30T02:19:40;6.38;;;4.88;;
52956;SDS011;38819;42.692;23.342;2024-01-30T02:22:06;6.05;;;5.03;;
52956;SDS011;38819;42.692;23.342;2024-01-30T02:24:32;6.70;;;5.18;;
52956;SDS011;38819;42.692;23.342;2024-01-30T02:26:58;7.35;;;4.80;;
52956;SDS011;38819;42.692;23.342;2024-01-30T02:29:23;6.60;;;4.88;;
52956;SDS011;38819;42.692;23.342;2024-01-30T02:31:49;6.88;;;5.03;;
52956;SDS011;38819;42.692;23.342;2024-01-30T02:34:14;8.10;;;4.45;;
52956;SDS011;38819;42.692;23.342;2024-01-30T02:36:43;7.20;;;5.03;;
52956;SDS011;38819;42.692;23.342;2024-01-30T02:39:08;5.55;;;4.32;;
52956;SDS011;38819;42.692;23.342;2024-01-30T02:41:34;5.40;;;4.10;;
52956;SDS011;38819;42.692;23.342;2024-01-30T02:44:00;5.65;;;4.20;;
52956;SDS011;38819;42.692;23.342;2024-01-30T02:46:25;5.22;;;4.18;;
52956;SDS011;38819;42.692;23.342;2024-01-30T02:48:51;5.72;;;4.25;;
52956;SDS011;38819;42.692;23.342;2024-01-30T02:51:16;7.35;;;5.10;;
52956;SDS011;38819;42.692;23.342;2024-01-30T02:53:42;5.93;;;4.28;;
52956;SDS011;38819;42.692;23.342;2024-01-30T02:56:07;8.32;;;4.03;;
52956;SDS011;38819;42.692;23.342;2024-01-30T03:01:00;4.68;;;4.00;;
52956;SDS011;38819;42.692;23.342;2024-01-30T03:03:25;6.43;;;4.13;;
52956;SDS011;38819;42.692;23.342;2024-01-30T03:05:51;5.95;;;4.35;;
52956;SDS011;38819;42.692;23.342;2024-01-30T03:08:16;4.90;;;4.18;;
52956;SDS011;38819;42.692;23.342;2024-01-30T03:10:41;5.25;;;4.40;;
52956;SDS011;38819;42.692;23.342;2024-01-30T03:13:07;9.65;;;4.10;;
52956;SDS011;38819;42.692;23.342;2024-01-30T03:15:32;5.55;;;3.95;;
52956;SDS011;38819;42.692;23.342;2024-01-30T03:17:57;7.50;;;4.13;;
52956;SDS011;38819;42.692;23.342;2024-01-30T03:20:23;5.93;;;4.28;;
52956;SDS011;38819;42.692;23.342;2024-01-30T03:22:49;5.40;;;3.95;;
52956;SDS011;38819;42.692;23.342;2024-01-30T03:25:14;5.68;;;4.00;;
52956;SDS011;38819;42.692;23.342;2024-01-30T03:27:40;6.65;;;3.95;;
52956;SDS011;38819;42.692;23.342;2024-01-30T03:30:05;17.23;;;4.75;;
52956;SDS011;38819;42.692;23.342;2024-01-30T03:32:31;7.60;;;3.65;;
52956;SDS011;38819;42.692;23.342;2024-01-30T03:34:56;4.32;;;3.40;;
52956;SDS011;38819;42.692;23.342;2024-01-30T03:37:23;7.30;;;3.28;;
52956;SDS011;38819;42.692;23.342;2024-01-30T03:39:48;4.65;;;4.00;;
52956;SDS011;38819;42.692;23.342;2024-01-30T03:42:13;6.00;;;3.58;;
52956;SDS011;38819;42.692;23.342;2024-01-30T03:44:39;3.63;;;3.15;;
52956;SDS011;38819;42.692;23.342;2024-01-30T03:47:04;4.75;;;3.60;;
52956;SDS011;38819;42.692;23.342;2024-01-30T03:49:30;8.00;;;3.72;;
52956;SDS011;38819;42.692;23.342;2024-01-30T03:51:55;3.63;;;2.90;;
52956;SDS011;38819;42.692;23.342;2024-01-30T03:54:20;4.43;;;3.70;;
52956;SDS011;38819;42.692;23.342;2024-01-30T03:56:46;4.57;;;3.30;;
52956;SDS011;38819;42.692;23.342;2024-01-30T03:59:12;6.03;;;3.70;;
52956;SDS011;38819;42.692;23.342;2024-01-30T04:01:37;6.10;;;4.18;;
52956;SDS011;38819;42.692;23.342;2024-01-30T04:04:02;4.22;;;3.03;;
52956;SDS011;38819;42.692;23.342;2024-01-30T04:06:29;10.77;;;6.03;;
52956;SDS011;38819;42.692;23.342;2024-01-30T04:08:54;4.70;;;3.53;;
52956;SDS011;38819;42.692;23.342;2024-01-30T04:11:20;3.92;;;3.60;;
52956;SDS011;38819;42.692;23.342;2024-01-30T04:13:45;8.43;;;3.90;;
52956;SDS011;38819;42.692;23.342;2024-01-30T04:16:19;9.65;;;3.78;;
52956;SDS011;38819;42.692;23.342;2024-01-30T04:18:47;5.82;;;4.28;;
52956;SDS011;38819;42.692;23.342;2024-01-30T04:21:12;4.45;;;3.50;;
52956;SDS011;38819;42.692;23.342;2024-01-30T04:23:37;6.85;;;4.68;;
52956;SDS011;38819;42.692;23.342;2024-01-30T04:26:04;5.72;;;3.92;;
52956;SDS011;38819;42.692;23.342;2024-01-30T04:28:29;5.13;;;3.88;;
52956;SDS011;38819;42.692;23.342;2024-01-30T04:30:55;6.72;;;4.55;;
52956;SDS011;38819;42.692;23.342;2024-01-30T04:33:20;8.05;;;4.55;;
52956;SDS011;38819;42.692;23.342;2024-01-30T04:35:45;5.40;;;4.30;;
52956;SDS011;38819;42.692;23.342;2024-01-30T04:38:11;4.25;;;3.70;;
52956;SDS011;38819;42.692;23.342;2024-01-30T04:40:36;5.47;;;4.03;;
52956;SDS011;38819;42.692;23.342;2024-01-30T04:43:01;7.60;;;4.63;;
52956;SDS011;38819;42.692;23.342;2024-01-30T04:45:27;10.05;;;5.20;;
52956;SDS011;38819;42.692;23.342;2024-01-30T04:47:52;6.70;;;4.47;;
52956;SDS011;38819;42.692;23.342;2024-01-30T04:50:17;12.65;;;4.35;;
52956;SDS011;38819;42.692;23.342;2024-01-30T04:52:44;5.72;;;4.45;;
52956;SDS011;38819;42.692;23.342;2024-01-30T04:55:09;8.35;;;5.25;;
52956;SDS011;38819;42.692;23.342;2024-01-30T04:57:34;8.38;;;5.43;;
52956;SDS011;38819;42.692;23.342;2024-01-30T05:00:00;7.82;;;4.72;;
52956;SDS011;38819;42.692;23.342;2024-01-30T05:02:25;6.75;;;4.25;;
52956;SDS011;38819;42.692;23.342;2024-01-30T05:04:51;10.10;;;5.28;;
52956;SDS011;38819;42.692;23.342;2024-01-30T05:07:16;8.57;;;4.68;;
52956;SDS011;38819;42.692;23.342;2024-01-30T05:09:41;11.20;;;5.72;;
52956;SDS011;38819;42.692;23.342;2024-01-30T05:12:07;12.23;;;5.78;;
52956;SDS011;38819;42.692;23.342;2024-01-30T05:14:32;8.48;;;4.70;;
52956;SDS011;38819;42.692;23.342;2024-01-30T05:16:58;14.82;;;4.63;;
52956;SDS011;38819;42.692;23.342;2024-01-30T05:19:23;13.55;;;4.55;;
52956;SDS011;38819;42.692;23.342;2024-01-30T05:21:49;7.32;;;4.43;;
52956;SDS011;38819;42.692;23.342;2024-01-30T05:24:14;16.25;;;5.35;;
52956;SDS011;38819;42.692;23.342;2024-01-30T05:26:40;10.23;;;5.60;;
52956;SDS011;38819;42.692;23.342;2024-01-30T05:29:06;10.90;;;4.57;;
52956;SDS011;38819;42.692;23.342;2024-01-30T05:31:32;7.82;;;4.78;;
52956;SDS011;38819;42.692;23.342;2024-01-30T05:33:58;12.45;;;5.10;;
52956;SDS011;38819;42.692;23.342;2024-01-30T05:36:24;10.68;;;6.43;;
52956;SDS011;38819;42.692;23.342;2024-01-30T05:38:49;9.02;;;5.65;;
52956;SDS011;38819;42.692;23.342;2024-01-30T05:41:14;8.45;;;5.38;;
52956;SDS011;38819;42.692;23.342;2024-01-30T05:43:40;9.45;;;5.82;;
52956;SDS011;38819;42.692;23.342;2024-01-30T05:46:06;5.60;;;4.43;;
52956;SDS011;38819;42.692;23.342;2024-01-30T05:48:31;11.40;;;5.20;;
52956;SDS011;38819;42.692;23.342;2024-01-30T05:50:57;7.70;;;5.07;;
52956;SDS011;38819;42.692;23.342;2024-01-30T05:53:22;13.95;;;4.97;;
52956;SDS011;38819;42.692;23.342;2024-01-30T05:55:47;12.93;;;4.88;;
52956;SDS011;38819;42.692;23.342;2024-01-30T05:58:13;21.83;;;6.32;;
52956;SDS011;38819;42.692;23.342;2024-01-30T06:00:38;14.02;;;5.53;;
52956;SDS011;38819;42.692;23.342;2024-01-30T06:03:04;12.23;;;6.20;;
52956;SDS011;38819;42.692;23.342;2024-01-30T06:05:29;17.65;;;6.45;;
52956;SDS011;38819;42.692;23.342;2024-01-30T06:07:55;9.10;;;5.35;;
52956;SDS011;38819;42.692;23.342;2024-01-30T06:10:20;22.17;;;6.85;;
52956;SDS011;38819;42.692;23.342;2024-01-30T06:12:45;21.73;;;6.32;;
52956;SDS011;38819;42.692;23.342;2024-01-30T06:15:11;9.90;;;5.50;;
52956;SDS011;38819;42.692;23.342;2024-01-30T06:17:37;15.50;;;7.00;;
52956;SDS011;38819;42.692;23.342;2024-01-30T06:20:03;10.65;;;5.10;;
52956;SDS011;38819;42.692;23.342;2024-01-30T06:22:29;18.85;;;7.13;;
52956;SDS011;38819;42.692;23.342;2024-01-30T06:24:54;15.15;;;5.38;;
52956;SDS011;38819;42.692;23.342;2024-01-30T06:27:20;25.67;;;6.80;;
52956;SDS011;38819;42.692;23.342;2024-01-30T06:29:45;10.93;;;6.85;;
52956;SDS011;38819;42.692;23.342;2024-01-30T06:32:11;10.02;;;6.53;;
52956;SDS011;38819;42.692;23.342;2024-01-30T06:34:36;9.32;;;4.45;;
52956;SDS011;38819;42.692;23.342;2024-01-30T06:37:03;7.22;;;3.90;;
52956;SDS011;38819;42.692;23.342;2024-01-30T06:39:28;12.98;;;4.10;;
52956;SDS011;38819;42.692;23.342;2024-01-30T06:41:54;6.40;;;3.70;;
52956;SDS011;38819;42.692;23.342;2024-01-30T06:44:19;6.53;;;3.75;;
52956;SDS011;38819;42.692;23.342;2024-01-30T06:46:44;10.55;;;4.15;;
52956;SDS011;38819;42.692;23.342;2024-01-30T06:49:10;7.07;;;3.78;;
52956;SDS011;38819;42.692;23.342;2024-01-30T06:51:35;17.25;;;4.88;;
52956;SDS011;38819;42.692;23.342;2024-01-30T06:54:01;7.95;;;4.72;;
52956;SDS011;38819;42.692;23.342;2024-01-30T06:56:26;14.25;;;5.50;;
52956;SDS011;38819;42.692;23.342;2024-01-30T06:58:51;19.88;;;6.80;;
52956;SDS011;38819;42.692;23.342;2024-01-30T07:01:17;20.90;;;7.50;;
52956;SDS011;38819;42.692;23.342;2024-01-30T07:03:42;14.15;;;6.30;;
52956;SDS011;38819;42.692;23.342;2024-01-30T07:06:08;13.23;;;5.95;;
52956;SDS011;38819;42.692;23.342;2024-01-30T07:08:35;11.00;;;5.82;;
52956;SDS011;38819;42.692;23.342;2024-01-30T07:11:02;16.75;;;7.18;;
52956;SDS011;38819;42.692;23.342;2024-01-30T07:13:27;20.80;;;8.93;;
52956;SDS011;38819;42.692;23.342;2024-01-30T07:15:53;13.95;;;5.15;;
52956;SDS011;38819;42.692;23.342;2024-01-30T07:18:19;18.95;;;5.85;;
52956;SDS011;38819;42.692;23.342;2024-01-30T07:20:44;17.15;;;5.10;;
52956;SDS011;38819;42.692;23.342;2024-01-30T07:23:14;9.10;;;5.03;;
52956;SDS011;38819;42.692;23.342;2024-01-30T07:25:42;13.13;;;5.07;;
52956;SDS011;38819;42.692;23.342;2024-01-30T07:28:10;6.90;;;4.30;;
52956;SDS011;38819;42.692;23.342;2024-01-30T07:30:37;11.27;;;3.73;;
52956;SDS011;38819;42.692;23.342;2024-01-30T07:33:02;7.82;;;4.40;;
52956;SDS011;38819;42.692;23.342;2024-01-30T07:35:28;13.68;;;5.80;;
52956;SDS011;38819;42.692;23.342;2024-01-30T07:37:53;6.53;;;4.22;;
52956;SDS011;38819;42.692;23.342;2024-01-30T07:40:19;18.50;;;4.32;;
52956;SDS011;38819;42.692;23.342;2024-01-30T07:42:44;14.05;;;4.07;;
52956;SDS011;38819;42.692;23.342;2024-01-30T07:45:10;15.82;;;4.22;;
52956;SDS011;38819;42.692;23.342;2024-01-30T07:47:35;10.18;;;3.85;;
52956;SDS011;38819;42.692;23.342;2024-01-30T07:50:00;16.77;;;5.80;;
52956;SDS011;38819;42.692;23.342;2024-01-30T07:52:26;5.22;;;3.55;;
52956;SDS011;38819;42.692;23.342;2024-01-30T07:54:51;6.63;;;3.40;;
52956;SDS011;38819;42.692;23.342;2024-01-30T07:57:17;9.23;;;3.78;;
52956;SDS011;38819;42.692;23.342;2024-01-30T07:59:43;19.08;;;3.90;;
52956;SDS011;38819;42.692;23.342;2024-01-30T08:02:11;11.82;;;4.15;;
52956;SDS011;38819;42.692;23.342;2024-01-30T08:04:37;4.78;;;3.65;;
52956;SDS011;38819;42.692;23.342;2024-01-30T08:07:03;4.53;;;3.55;;
52956;SDS011;38819;42.692;23.342;2024-01-30T08:09:28;6.00;;;3.72;;
52956;SDS011;38819;42.692;23.342;2024-01-30T08:11:53;7.97;;;3.50;;
52956;SDS011;38819;42.692;23.342;2024-01-30T08:14:19;5.93;;;3.60;;
52956;SDS011;38819;42.692;23.342;2024-01-30T08:16:44;6.07;;;4.07;;
52956;SDS011;38819;42.692;23.342;2024-01-30T08:19:10;4.28;;;3.17;;
52956;SDS011;38819;42.692;23.342;2024-01-30T08:21:35;9.95;;;4.07;;
52956;SDS011;38819;42.692;23.342;2024-01-30T08:24:04;6.13;;;4.07;;
52956;SDS011;38819;42.692;23.342;2024-01-30T08:26:31;10.60;;;4.10;;
52956;SDS011;38819;42.692;23.342;2024-01-30T08:28:57;9.17;;;4.40;;
52956;SDS011;38819;42.692;23.342;2024-01-30T08:31:22;6.22;;;4.25;;
52956;SDS011;38819;42.692;23.342;2024-01-30T08:33:48;7.97;;;4.13;;
52956;SDS011;38819;42.692;23.342;2024-01-30T08:36:13;4.45;;;3.25;;
52956;SDS011;38819;42.692;23.342;2024-01-30T08:38:39;5.38;;;4.20;;
52956;SDS011;38819;42.692;23.342;2024-01-30T08:41:04;5.95;;;3.65;;
52956;SDS011;38819;42.692;23.342;2024-01-30T08:43:30;5.47;;;4.00;;
52956;SDS011;38819;42.692;23.342;2024-01-30T08:45:55;8.27;;;4.43;;
52956;SDS011;38819;42.692;23.342;2024-01-30T08:48:24;8.93;;;5.20;;
52956;SDS011;38819;42.692;23.342;2024-01-30T08:50:50;6.78;;;4.03;;
52956;SDS011;38819;42.692;23.342;2024-01-30T08:53:15;6.68;;;4.18;;
52956;SDS011;38819;42.692;23.342;2024-01-30T08:55:41;8.52;;;3.88;;
52956;SDS011;38819;42.692;23.342;2024-01-30T08:58:06;7.63;;;3.83;;
52956;SDS011;38819;42.692;23.342;2024-01-30T09:00:32;12.82;;;4.22;;
52956;SDS011;38819;42.692;23.342;2024-01-30T09:02:57;5.82;;;4.05;;
52956;SDS011;38819;42.692;23.342;2024-01-30T09:05:22;10.20;;;5.10;;
52956;SDS011;38819;42.692;23.342;2024-01-30T09:07:48;6.85;;;4.00;;
52956;SDS011;38819;42.692;23.342;2024-01-30T09:10:13;8.20;;;4.10;;
52956;SDS011;38819;42.692;23.342;2024-01-30T09:12:38;7.55;;;4.80;;
52956;SDS011;38819;42.692;23.342;2024-01-30T09:15:04;21.08;;;5.43;;
52956;SDS011;38819;42.692;23.342;2024-01-30T09:17:29;8.00;;;4.03;;
52956;SDS011;38819;42.692;23.342;2024-01-30T09:19:55;6.45;;;4.00;;
52956;SDS011;38819;42.692;23.342;2024-01-30T09:22:21;4.63;;;3.47;;
52956;SDS011;38819;42.692;23.342;2024-01-30T09:24:46;5.22;;;3.97;;
52956;SDS011;38819;42.692;23.342;2024-01-30T09:27:11;11.77;;;4.70;;
52956;SDS011;38819;42.692;23.342;2024-01-30T09:29:37;5.75;;;3.50;;
52956;SDS011;38819;42.692;23.342;2024-01-30T09:32:03;6.22;;;4.45;;
52956;SDS011;38819;42.692;23.342;2024-01-30T09:34:29;5.28;;;4.53;;
52956;SDS011;38819;42.692;23.342;2024-01-30T09:36:54;8.00;;;4.07;;
52956;SDS011;38819;42.692;23.342;2024-01-30T09:39:20;8.40;;;4.10;;
52956;SDS011;38819;42.692;23.342;2024-01-30T09:41:48;7.90;;;3.90;;
52956;SDS011;38819;42.692;23.342;2024-01-30T09:44:16;4.75;;;3.40;;
52956;SDS011;38819;42.692;23.342;2024-01-30T09:46:45;14.20;;;4.05;;
52956;SDS011;38819;42.692;23.342;2024-01-30T09:49:13;8.25;;;3.53;;
52956;SDS011;38819;42.692;23.342;2024-01-30T09:51:39;4.93;;;3.72;;
52956;SDS011;38819;42.692;23.342;2024-01-30T09:54:05;3.60;;;3.30;;
52956;SDS011;38819;42.692;23.342;2024-01-30T09:56:33;7.82;;;4.00;;
52956;SDS011;38819;42.692;23.342;2024-01-30T09:58:59;4.93;;;3.78;;
52956;SDS011;38819;42.692;23.342;2024-01-30T10:01:24;4.35;;;3.70;;
52956;SDS011;38819;42.692;23.342;2024-01-30T10:03:50;5.13;;;3.92;;
52956;SDS011;38819;42.692;23.342;2024-01-30T10:06:17;5.25;;;3.92;;
52956;SDS011;38819;42.692;23.342;2024-01-30T10:08:43;4.20;;;3.50;;
52956;SDS011;38819;42.692;23.342;2024-01-30T10:11:09;7.70;;;3.13;;
52956;SDS011;38819;42.692;23.342;2024-01-30T10:13:34;6.07;;;3.95;;
52956;SDS011;38819;42.692;23.342;2024-01-30T10:16:00;12.35;;;3.85;;
52956;SDS011;38819;42.692;23.342;2024-01-30T10:18:27;5.38;;;3.42;;
52956;SDS011;38819;42.692;23.342;2024-01-30T10:20:53;7.20;;;3.88;;
52956;SDS011;38819;42.692;23.342;2024-01-30T10:23:19;5.68;;;2.95;;
52956;SDS011;38819;42.692;23.342;2024-01-30T10:25:45;7.78;;;4.03;;
52956;SDS011;38819;42.692;23.342;2024-01-30T10:28:11;6.85;;;3.97;;
52956;SDS011;38819;42.692;23.342;2024-01-30T10:30:36;17.83;;;3.63;;
52956;SDS011;38819;42.692;23.342;2024-01-30T10:33:02;7.35;;;3.50;;
52956;SDS011;38819;42.692;23.342;2024-01-30T10:35:27;10.50;;;3.95;;
52956;SDS011;38819;42.692;23.342;2024-01-30T10:37:53;14.00;;;3.70;;
52956;SDS011;38819;42.692;23.342;2024-01-30T10:40:22;13.85;;;3.40;;
52956;SDS011;38819;42.692;23.342;2024-01-30T10:42:53;12.30;;;3.45;;
52956;SDS011;38819;42.692;23.342;2024-01-30T10:45:20;21.13;;;3.20;;
52956;SDS011;38819;42.692;23.342;2024-01-30T10:47:50;3.20;;;2.80;;
52956;SDS011;38819;42.692;23.342;2024-01-30T10:50:18;3.38;;;3.08;;
52956;SDS011;38819;42.692;23.342;2024-01-30T10:52:44;3.17;;;2.88;;
52956;SDS011;38819;42.692;23.342;2024-01-30T10:55:11;7.97;;;2.70;;
52956;SDS011;38819;42.692;23.342;2024-01-30T10:57:38;4.05;;;2.85;;
52956;SDS011;38819;42.692;23.342;2024-01-30T11:00:08;3.15;;;2.78;;
52956;SDS011;38819;42.692;23.342;2024-01-30T11:02:36;6.68;;;3.10;;
52956;SDS011;38819;42.692;23.342;2024-01-30T11:05:04;3.47;;;3.05;;
52956;SDS011;38819;42.692;23.342;2024-01-30T11:07:30;5.63;;;2.63;;
52956;SDS011;38819;42.692;23.342;2024-01-30T11:12:28;8.10;;;3.08;;
52956;SDS011;38819;42.692;23.342;2024-01-30T11:18:00;3.40;;;3.10;;
52956;SDS011;38819;42.692;23.342;2024-01-30T11:20:26;4.28;;;2.88;;
52956;SDS011;38819;42.692;23.342;2024-01-30T11:22:57;4.38;;;3.50;;
52956;SDS011;38819;42.692;23.342;2024-01-30T11:25:23;3.72;;;2.83;;
52956;SDS011;38819;42.692;23.342;2024-01-30T11:27:53;3.28;;;2.95;;
52956;SDS011;38819;42.692;23.342;2024-01-30T11:30:23;5.32;;;3.08;;
52956;SDS011;38819;42.692;23.342;2024-01-30T11:33:05;5.88;;;3.30;;
52956;SDS011;38819;42.692;23.342;2024-01-30T11:35:34;6.55;;;3.15;;
52956;SDS011;38819;42.692;23.342;2024-01-30T11:38:03;14.15;;;3.35;;
52956;SDS011;38819;42.692;23.342;2024-01-30T11:40:30;23.25;;;3.80;;
52956;SDS011;38819;42.692;23.342;2024-01-30T11:42:57;11.27;;;2.95;;
52956;SDS011;38819;42.692;23.342;2024-01-30T11:45:24;3.33;;;2.85;;
52956;SDS011;38819;42.692;23.342;2024-01-30T11:47:49;4.35;;;3.22;;
52956;SDS011;38819;42.692;23.342;2024-01-30T11:50:15;8.63;;;3.83;;
52956;SDS011;38819;42.692;23.342;2024-01-30T11:52:41;8.73;;;3.33;;
52956;SDS011;38819;42.692;23.342;2024-01-30T11:55:08;3.97;;;3.27;;
52956;SDS011;38819;42.692;23.342;2024-01-30T11:57:34;4.38;;;3.17;;
52956;SDS011;38819;42.692;23.342;2024-01-30T12:00:03;5.57;;;3.20;;
52956;SDS011;38819;42.692;23.342;2024-01-30T12:02:35;3.35;;;3.05;;
52956;SDS011;38819;42.692;23.342;2024-01-30T12:05:04;6.72;;;3.85;;
52956;SDS011;38819;42.692;23.342;2024-01-30T12:07:30;10.70;;;3.45;;
52956;SDS011;38819;42.692;23.342;2024-01-30T12:09:56;5.88;;;3.60;;
52956;SDS011;38819;42.692;23.342;2024-01-30T12:12:25;4.05;;;3.35;;
52956;SDS011;38819;42.692;23.342;2024-01-30T12:14:52;6.15;;;3.75;;
52956;SDS011;38819;42.692;23.342;2024-01-30T12:17:26;4.63;;;3.05;;
52956;SDS011;38819;42.692;23.342;2024-01-30T12:22:44;4.75;;;3.47;;
52956;SDS011;38819;42.692;23.342;2024-01-30T12:25:12;5.50;;;3.70;;
52956;SDS011;38819;42.692;23.342;2024-01-30T12:27:39;8.77;;;3.30;;
52956;SDS011;38819;42.692;23.342;2024-01-30T12:32:34;5.35;;;3.83;;
52956;SDS011;38819;42.692;23.342;2024-01-30T12:35:01;4.90;;;3.83;;
52956;SDS011;38819;42.692;23.342;2024-01-30T12:37:27;14.90;;;4.00;;
52956;SDS011;38819;42.692;23.342;2024-01-30T12:39:52;3.75;;;3.38;;
52956;SDS011;38819;42.692;23.342;2024-01-30T12:42:20;3.60;;;3.20;;
52956;SDS011;38819;42.692;23.342;2024-01-30T12:44:49;6.70;;;4.28;;
52956;SDS011;38819;42.692;23.342;2024-01-30T12:47:14;8.30;;;3.80;;
52956;SDS011;38819;42.692;23.342;2024-01-30T12:49:44;3.72;;;3.28;;
52956;SDS011;38819;42.692;23.342;2024-01-30T12:52:10;3.40;;;3.10;;
52956;SDS011;38819;42.692;23.342;2024-01-30T12:54:36;4.78;;;3.72;;
52956;SDS011;38819;42.692;23.342;2024-01-30T12:57:02;18.63;;;4.95;;
52956;SDS011;38819;42.692;23.342;2024-01-30T12:59:27;5.82;;;3.97;;
52956;SDS011;38819;42.692;23.342;2024-01-30T13:01:53;4.10;;;3.55;;
52956;SDS011;38819;42.692;23.342;2024-01-30T13:04:18;5.63;;;4.03;;
52956;SDS011;38819;42.692;23.342;2024-01-30T13:06:44;3.92;;;3.30;;
52956;SDS011;38819;42.692;23.342;2024-01-30T13:09:09;4.18;;;3.72;;
52956;SDS011;38819;42.692;23.342;2024-01-30T13:11:34;4.28;;;3.85;;
52956;SDS011;38819;42.692;23.342;2024-01-30T13:14:00;6.68;;;3.97;;
52956;SDS011;38819;42.692;23.342;2024-01-30T13:16:26;6.93;;;3.83;;
52956;SDS011;38819;42.692;23.342;2024-01-30T13:18:51;6.40;;;4.40;;
52956;SDS011;38819;42.692;23.342;2024-01-30T13:21:17;5.53;;;3.95;;
52956;SDS011;38819;42.692;23.342;2024-01-30T13:23:42;5.45;;;4.55;;
52956;SDS011;38819;42.692;23.342;2024-01-30T13:26:08;5.18;;;3.80;;
52956;SDS011;38819;42.692;23.342;2024-01-30T13:28:33;7.07;;;4.20;;
52956;SDS011;38819;42.692;23.342;2024-01-30T13:30:59;8.90;;;4.07;;
52956;SDS011;38819;42.692;23.342;2024-01-30T13:33:24;5.45;;;4.05;;
52956;SDS011;38819;42.692;23.342;2024-01-30T13:35:51;4.90;;;3.80;;
52956;SDS011;38819;42.692;23.342;2024-01-30T13:38:16;10.38;;;4.00;;
52956;SDS011;38819;42.692;23.342;2024-01-30T13:40:42;5.38;;;4.30;;
52956;SDS011;38819;42.692;23.342;2024-01-30T13:43:07;9.68;;;3.85;;
52956;SDS011;38819;42.692;23.342;2024-01-30T13:45:33;6.55;;;4.05;;
52956;SDS011;38819;42.692;23.342;2024-01-30T13:47:58;10.75;;;4.50;;
52956;SDS011;38819;42.692;23.342;2024-01-30T13:50:24;8.80;;;4.85;;
52956;SDS011;38819;42.692;23.342;2024-01-30T13:52:49;8.05;;;5.35;;
52956;SDS011;38819;42.692;23.342;2024-01-30T13:55:14;6.18;;;4.03;;
52956;SDS011;38819;42.692;23.342;2024-01-30T13:57:40;9.35;;;5.93;;
52956;SDS011;38819;42.692;23.342;2024-01-30T14:00:05;7.30;;;4.32;;
52956;SDS011;38819;42.692;23.342;2024-01-30T14:02:31;13.18;;;5.18;;
52956;SDS011;38819;42.692;23.342;2024-01-30T14:04:57;7.07;;;4.93;;
52956;SDS011;38819;42.692;23.342;2024-01-30T14:07:22;9.07;;;4.55;;
52956;SDS011;38819;42.692;23.342;2024-01-30T14:09:48;5.40;;;4.10;;
52956;SDS011;38819;42.692;23.342;2024-01-30T14:12:14;7.32;;;4.45;;
52956;SDS011;38819;42.692;23.342;2024-01-30T14:14:40;12.68;;;5.13;;
52956;SDS011;38819;42.692;23.342;2024-01-30T14:17:06;5.45;;;4.22;;
52956;SDS011;38819;42.692;23.342;2024-01-30T14:19:32;5.78;;;4.78;;
52956;SDS011;38819;42.692;23.342;2024-01-30T14:21:58;10.38;;;4.68;;
52956;SDS011;38819;42.692;23.342;2024-01-30T14:24:23;13.70;;;5.03;;
52956;SDS011;38819;42.692;23.342;2024-01-30T14:26:49;15.15;;;4.97;;
52956;SDS011;38819;42.692;23.342;2024-01-30T14:29:14;6.15;;;4.60;;
52956;SDS011;38819;42.692;23.342;2024-01-30T14:31:40;5.75;;;4.35;;
52956;SDS011;38819;42.692;23.342;2024-01-30T14:34:05;8.40;;;4.90;;
52956;SDS011;38819;42.692;23.342;2024-01-30T14:36:30;6.32;;;4.28;;